createdAt,value
2024-02-24T00:01:52.041Z,0.90
2024-02-24T00:04:18.814Z,0.80
2024-02-24T00:06:45.222Z,0.90
2024-02-24T00:09:11.626Z,0.60
2024-02-24T00:11:38.300Z,0.82
2024-02-24T00:14:04.913Z,0.88
2024-02-24T00:16:32.263Z,0.60
2024-02-24T00:18:58.662Z,0.85
2024-02-24T00:21:24.942Z,0.50
2024-02-24T00:23:51.235Z,0.50
2024-02-24T00:26:18.994Z,0.30
2024-02-24T00:28:45.368Z,0.70
2024-02-24T00:31:11.737Z,0.50
2024-02-24T00:33:40.744Z,0.57
2024-02-24T00:36:10.722Z,0.50
2024-02-24T00:38:37.069Z,0.60
2024-02-24T00:41:03.684Z,0.65
2024-02-24T00:43:34.430Z,0.63
2024-02-24T00:46:00.989Z,0.60
2024-02-24T00:48:28.519Z,0.90
2024-02-24T00:50:54.969Z,0.40
2024-02-24T00:53:21.415Z,0.50
2024-02-24T00:55:47.743Z,0.32
2024-02-24T00:58:14.103Z,0.40
2024-02-24T01:00:40.608Z,0.90
2024-02-24T01:03:06.975Z,0.30
2024-02-24T01:05:35.616Z,0.55
2024-02-24T01:08:02.115Z,0.40
2024-02-24T01:10:32.328Z,0.40
2024-02-24T01:12:58.690Z,0.40
2024-02-24T01:15:27.626Z,0.45
2024-02-24T01:17:54.203Z,0.40
2024-02-24T01:20:20.608Z,0.55
2024-02-24T01:22:47.241Z,0.38
2024-02-24T01:25:13.663Z,0.22
2024-02-24T01:27:41.228Z,0.70
2024-02-24T01:30:10.075Z,0.32
2024-02-24T01:32:36.691Z,0.32
2024-02-24T01:35:03.633Z,0.40
2024-02-24T01:37:30.168Z,0.50
2024-02-24T01:39:56.674Z,0.50
2024-02-24T01:42:23.348Z,0.20
2024-02-24T01:44:52.247Z,0.40
2024-02-24T01:47:20.014Z,0.50
2024-02-24T01:49:46.459Z,0.60
2024-02-24T01:52:12.753Z,0.40
2024-02-24T01:54:39.452Z,0.40
2024-02-24T01:57:06.924Z,0.43
2024-02-24T01:59:33.312Z,0.52
2024-02-24T02:01:59.799Z,0.50
2024-02-24T02:04:26.638Z,0.40
2024-02-24T02:06:53.159Z,0.45
2024-02-24T02:09:22.260Z,0.70
2024-02-24T02:11:56.585Z,0.43
2024-02-24T02:14:29.431Z,0.63
2024-02-24T02:16:58.159Z,0.80
2024-02-24T02:19:24.576Z,0.73
2024-02-24T02:21:51.824Z,0.77
2024-02-24T02:24:18.373Z,0.82
2024-02-24T02:26:44.951Z,0.60
2024-02-24T02:29:13.384Z,0.60
2024-02-24T02:31:42.073Z,0.82
2024-02-24T02:34:08.712Z,1.40
2024-02-24T02:36:35.030Z,1.00
2024-02-24T02:39:02.688Z,0.93
2024-02-24T02:41:29.164Z,1.08
2024-02-24T02:43:57.985Z,0.90
2024-02-24T02:46:24.346Z,1.38
2024-02-24T02:48:53.300Z,1.30
2024-02-24T02:51:19.731Z,1.20
2024-02-24T02:53:46.284Z,1.60
2024-02-24T02:56:14.860Z,1.35
2024-02-24T02:58:41.225Z,1.02
2024-02-24T03:01:09.609Z,1.38
2024-02-24T03:03:35.933Z,1.27
2024-02-24T03:06:02.442Z,1.30
2024-02-24T03:08:31.603Z,1.50
2024-02-24T03:10:58.067Z,1.40
2024-02-24T03:13:27.877Z,1.45
2024-02-24T03:15:54.192Z,0.95
2024-02-24T03:18:20.662Z,1.02
2024-02-24T03:20:48.337Z,1.10
2024-02-24T03:23:16.182Z,1.08
2024-02-24T03:25:42.445Z,1.10
2024-02-24T03:28:08.726Z,1.52
2024-02-24T03:30:35.317Z,1.05
2024-02-24T03:33:03.137Z,1.00
2024-02-24T03:38:09.797Z,1.13
2024-02-24T03:40:36.178Z,1.15
2024-02-24T03:43:04.946Z,1.13
2024-02-24T03:45:31.300Z,0.93
2024-02-24T03:47:58.966Z,0.98
2024-02-24T03:50:31.315Z,1.20
2024-02-24T03:53:03.569Z,1.40
2024-02-24T03:55:31.909Z,1.25
2024-02-24T03:57:59.175Z,1.42
2024-02-24T04:00:25.433Z,1.50
2024-02-24T04:02:53.761Z,1.48
2024-02-24T04:05:21.093Z,1.10
2024-02-24T04:07:47.456Z,1.48
2024-02-24T04:10:16.729Z,1.30
2024-02-24T04:12:43.294Z,0.95
2024-02-24T04:15:09.814Z,1.75
2024-02-24T04:17:36.390Z,1.02
2024-02-24T04:20:02.758Z,1.13
2024-02-24T04:22:29.212Z,1.35
2024-02-24T04:24:55.621Z,1.33
2024-02-24T04:27:21.953Z,1.35
2024-02-24T04:29:48.373Z,1.30
2024-02-24T04:32:14.753Z,1.08
2024-02-24T04:34:41.130Z,1.38
2024-02-24T04:37:07.586Z,1.33
2024-02-24T04:39:33.936Z,1.05
2024-02-24T04:42:00.283Z,1.90
2024-02-24T04:44:29.012Z,1.23
2024-02-24T04:46:55.665Z,1.77
2024-02-24T04:49:22.014Z,1.40
2024-02-24T04:51:48.408Z,1.30
2024-02-24T04:54:14.748Z,1.70
2024-02-24T04:56:41.074Z,1.30
2024-02-24T04:59:08.629Z,1.80
2024-02-24T05:01:34.959Z,1.50
2024-02-24T05:04:02.293Z,1.50
2024-02-24T05:06:28.775Z,1.38
2024-02-24T05:08:55.619Z,1.50
2024-02-24T05:11:22.148Z,1.23
2024-02-24T05:13:48.557Z,1.02
2024-02-24T05:16:15.130Z,1.55
2024-02-24T05:18:41.574Z,1.40
2024-02-24T05:21:08.007Z,1.65
2024-02-24T05:23:34.362Z,1.85
2024-02-24T05:26:00.738Z,1.55
2024-02-24T05:28:27.858Z,1.83
2024-02-24T05:30:54.212Z,2.08
2024-02-24T05:33:20.852Z,1.85
2024-02-24T05:35:47.728Z,1.48
2024-02-24T05:38:14.124Z,1.75
2024-02-24T05:40:40.518Z,1.83
2024-02-24T05:43:08.965Z,2.00
2024-02-24T05:45:35.298Z,1.98
2024-02-24T05:48:01.646Z,1.60
2024-02-24T05:50:28.129Z,1.63
2024-02-24T05:52:54.474Z,1.45
2024-02-24T05:55:20.833Z,1.90
2024-02-24T05:57:47.350Z,1.52
2024-02-24T06:00:13.919Z,1.50
2024-02-24T06:02:40.350Z,1.88
2024-02-24T06:05:08.508Z,1.90
2024-02-24T06:07:35.175Z,2.08
2024-02-24T06:10:01.512Z,2.55
2024-02-24T06:12:29.467Z,2.20
2024-02-24T06:14:55.982Z,2.10
2024-02-24T06:17:22.524Z,2.63
2024-02-24T06:19:49.033Z,2.75
2024-02-24T06:22:15.387Z,3.08
2024-02-24T06:24:41.751Z,3.97
2024-02-24T06:27:08.104Z,3.40
2024-02-24T06:29:34.503Z,2.95
2024-02-24T06:32:00.877Z,3.00
2024-02-24T06:34:27.399Z,3.75
2024-02-24T06:36:58.189Z,2.97
2024-02-24T06:39:24.443Z,4.57
2024-02-24T06:41:50.830Z,3.75
2024-02-24T06:44:17.192Z,4.60
2024-02-24T06:46:43.542Z,3.40
2024-02-24T06:49:12.528Z,3.03
2024-02-24T06:51:38.918Z,3.67
2024-02-24T06:54:05.346Z,3.75
2024-02-24T06:56:31.762Z,3.95
2024-02-24T06:58:58.103Z,3.38
2024-02-24T07:01:24.930Z,3.58
2024-02-24T07:03:51.588Z,3.08
2024-02-24T07:06:19.030Z,4.03
2024-02-24T07:08:46.009Z,3.45
2024-02-24T07:11:12.479Z,4.05
2024-02-24T07:13:39.328Z,3.78
2024-02-24T07:16:05.931Z,4.55
2024-02-24T07:18:32.421Z,3.40
2024-02-24T07:21:00.639Z,3.78
2024-02-24T07:23:30.948Z,3.63
2024-02-24T07:25:57.417Z,3.47
2024-02-24T07:28:24.759Z,3.33
2024-02-24T07:30:51.115Z,3.53
2024-02-24T07:33:19.922Z,3.65
2024-02-24T07:35:46.385Z,3.38
2024-02-24T07:38:12.865Z,3.45
2024-02-24T07:40:40.405Z,3.17
2024-02-24T07:43:09.474Z,3.67
2024-02-24T07:45:36.102Z,3.55
2024-02-24T07:48:02.533Z,4.20
2024-02-24T07:50:29.126Z,4.40
2024-02-24T07:52:55.542Z,3.25
2024-02-24T07:55:21.958Z,4.28
2024-02-24T07:57:48.510Z,3.97
2024-02-24T08:00:15.596Z,2.95
2024-02-24T08:02:42.030Z,3.08
2024-02-24T08:05:08.421Z,3.30
2024-02-24T08:07:34.804Z,3.78
2024-02-24T08:10:01.385Z,3.80
2024-02-24T08:12:28.076Z,3.30
2024-02-24T08:14:54.629Z,2.97
2024-02-24T08:17:20.959Z,3.15
2024-02-24T08:19:47.488Z,3.00
2024-02-24T08:22:13.892Z,3.50
2024-02-24T08:24:40.229Z,3.67
2024-02-24T08:27:06.781Z,2.90
2024-02-24T08:29:33.200Z,2.70
2024-02-24T08:32:00.138Z,2.85
2024-02-24T08:34:26.720Z,2.25
2024-02-24T08:36:53.086Z,3.30
2024-02-24T08:39:19.516Z,2.38
2024-02-24T08:41:48.202Z,2.60
2024-02-24T08:44:14.522Z,1.95
2024-02-24T08:46:41.073Z,2.13
2024-02-24T08:49:07.434Z,2.67
2024-02-24T08:51:33.764Z,2.25
2024-02-24T08:54:00.157Z,2.30
2024-02-24T08:56:26.723Z,2.53
2024-02-24T08:58:53.360Z,2.33
2024-02-24T09:01:19.992Z,2.58
2024-02-24T09:03:46.444Z,1.58
2024-02-24T09:06:13.102Z,0.88
2024-02-24T09:08:41.764Z,1.48
2024-02-24T09:11:08.288Z,2.20
2024-02-24T09:13:34.770Z,2.20
2024-02-24T09:16:01.149Z,0.90
2024-02-24T09:18:27.688Z,1.10
2024-02-24T09:20:54.207Z,1.40
2024-02-24T09:23:20.734Z,1.15
2024-02-24T09:25:47.216Z,1.52
2024-02-24T09:28:13.515Z,2.03
2024-02-24T09:30:39.823Z,2.15
2024-02-24T09:33:06.249Z,2.75
2024-02-24T09:35:32.835Z,1.73
2024-02-24T09:37:59.247Z,2.55
2024-02-24T09:40:25.622Z,3.45
2024-02-24T09:43:01.076Z,1.95
2024-02-24T09:45:27.693Z,3.08
2024-02-24T09:47:54.632Z,2.55
2024-02-24T09:50:21.098Z,3.88
2024-02-24T09:52:47.510Z,3.10
2024-02-24T09:55:13.829Z,3.20
2024-02-24T09:57:41.699Z,3.83
2024-02-24T10:00:08.252Z,3.13
2024-02-24T10:02:35.509Z,3.90
2024-02-24T10:05:01.901Z,3.00
2024-02-24T10:07:28.229Z,4.10
2024-02-24T10:09:54.453Z,3.45
2024-02-24T10:12:22.107Z,3.95
2024-02-24T10:14:48.573Z,4.07
2024-02-24T10:17:17.344Z,3.97
2024-02-24T10:19:43.998Z,3.17
2024-02-24T10:22:10.437Z,3.70
2024-02-24T10:24:41.286Z,4.45
2024-02-24T10:27:07.647Z,4.20
2024-02-24T10:29:34.012Z,3.33
2024-02-24T10:32:00.908Z,3.60
2024-02-24T10:34:28.105Z,4.00
2024-02-24T10:36:55.486Z,2.40
2024-02-24T10:39:21.825Z,3.38
2024-02-24T10:41:48.577Z,3.92
2024-02-24T10:44:22.402Z,3.35
2024-02-24T10:46:49.892Z,2.55
2024-02-24T10:49:16.631Z,2.90
2024-02-24T10:51:43.582Z,3.83
2024-02-24T10:54:13.097Z,2.65
2024-02-24T10:56:40.222Z,3.15
2024-02-24T10:59:12.389Z,3.85
2024-02-24T11:01:42.448Z,3.67
2024-02-24T11:04:08.781Z,4.13
2024-02-24T11:06:45.389Z,4.03
2024-02-24T11:09:15.475Z,3.78
2024-02-24T11:11:42.044Z,3.03
2024-02-24T11:16:36.713Z,3.03
2024-02-24T11:19:03.190Z,3.72
2024-02-24T11:21:48.169Z,3.75
2024-02-24T11:24:20.237Z,4.28
2024-02-24T11:26:47.851Z,2.58
2024-02-24T11:29:17.304Z,2.80
2024-02-24T11:31:45.397Z,2.83
2024-02-24T11:34:11.802Z,1.38
2024-02-24T11:36:40.162Z,1.13
2024-02-24T11:39:10.267Z,2.20
2024-02-24T11:41:38.240Z,2.10
2024-02-24T11:44:04.890Z,2.10
2024-02-24T11:46:31.194Z,2.65
2024-02-24T11:48:57.698Z,1.67
2024-02-24T11:51:24.336Z,2.85
2024-02-24T11:53:53.588Z,2.55
2024-02-24T11:56:19.934Z,2.53
2024-02-24T11:58:46.410Z,2.92
2024-02-24T12:01:13.346Z,2.40
2024-02-24T12:03:39.770Z,2.58
2024-02-24T12:06:07.037Z,1.25
2024-02-24T12:08:34.079Z,2.92
2024-02-24T12:11:00.798Z,1.75
2024-02-24T12:13:27.244Z,2.80
2024-02-24T12:15:54.175Z,2.38
2024-02-24T12:18:23.805Z,2.83
2024-02-24T12:20:50.435Z,2.22
2024-02-24T12:23:16.782Z,1.63
2024-02-24T12:25:43.043Z,2.72
2024-02-24T12:28:09.375Z,2.70
2024-02-24T12:30:37.328Z,2.17
2024-02-24T12:33:04.560Z,0.98
2024-02-24T12:35:31.333Z,1.50
2024-02-24T12:37:57.863Z,1.60
2024-02-24T12:40:34.512Z,0.77
2024-02-24T12:43:01.654Z,1.55
2024-02-24T12:45:28.181Z,1.38
2024-02-24T12:47:54.964Z,2.03
2024-02-24T12:50:22.427Z,1.88
2024-02-24T12:52:49.413Z,1.38
2024-02-24T12:55:16.171Z,1.40
2024-02-24T12:57:42.555Z,1.60
2024-02-24T13:00:09.611Z,1.02
2024-02-24T13:02:36.674Z,1.30
2024-02-24T13:05:03.964Z,1.00
2024-02-24T13:07:30.727Z,0.80
2024-02-24T13:09:57.143Z,0.93
2024-02-24T13:12:23.614Z,0.70
2024-02-24T13:14:50.293Z,0.80
2024-02-24T13:17:17.043Z,0.50
2024-02-24T13:19:43.631Z,0.50
2024-02-24T13:22:09.883Z,0.82
2024-02-24T13:24:36.186Z,0.75
2024-02-24T13:27:02.530Z,0.45
2024-02-24T13:29:28.967Z,0.70
2024-02-24T13:31:55.450Z,0.43
2024-02-24T13:34:21.761Z,0.98
2024-02-24T13:36:48.132Z,0.60
2024-02-24T13:39:14.911Z,0.80
2024-02-24T13:41:41.203Z,0.88
2024-02-24T13:44:07.715Z,0.75
2024-02-24T13:46:34.250Z,0.85
2024-02-24T13:49:05.169Z,0.57
2024-02-24T13:51:31.609Z,0.65
2024-02-24T13:53:58.181Z,0.77
2024-02-24T13:56:24.662Z,0.80
2024-02-24T13:58:51.507Z,0.90
2024-02-24T14:01:17.926Z,1.05
2024-02-24T14:03:44.369Z,0.90
2024-02-24T14:06:10.828Z,1.02
2024-02-24T14:08:37.286Z,0.73
2024-02-24T14:11:04.094Z,0.93
2024-02-24T14:13:31.758Z,1.00
2024-02-24T14:15:58.113Z,1.50
2024-02-24T14:18:24.710Z,0.85
2024-02-24T14:20:51.165Z,1.70
2024-02-24T14:23:17.517Z,1.00
2024-02-24T14:25:43.842Z,0.93
2024-02-24T14:28:10.811Z,0.90
2024-02-24T14:30:37.829Z,1.02
2024-02-24T14:33:04.280Z,0.88
2024-02-24T14:35:30.796Z,0.85
2024-02-24T14:37:57.204Z,0.60
2024-02-24T14:40:23.491Z,0.68
2024-02-24T14:42:49.822Z,1.00
2024-02-24T14:45:16.333Z,1.00
2024-02-24T14:47:42.800Z,0.90
2024-02-24T14:50:09.470Z,1.20
2024-02-24T14:52:35.790Z,0.90
2024-02-24T14:55:02.150Z,1.98
2024-02-24T14:57:28.429Z,1.17
2024-02-24T14:59:54.742Z,1.58
2024-02-24T15:02:30.438Z,1.80
2024-02-24T15:05:07.462Z,1.08
2024-02-24T15:07:33.799Z,0.98
2024-02-24T15:10:00.369Z,1.35
2024-02-24T15:12:26.764Z,1.20
2024-02-24T15:14:53.151Z,0.70
2024-02-24T15:17:19.592Z,0.70
2024-02-24T15:19:45.925Z,1.25
2024-02-24T15:22:12.343Z,0.70
2024-02-24T15:24:38.596Z,0.65
2024-02-24T15:27:05.214Z,1.20
2024-02-24T15:29:33.671Z,1.25
2024-02-24T15:32:00.193Z,0.93
2024-02-24T15:34:26.681Z,0.90
2024-02-24T15:36:53.060Z,1.23
2024-02-24T15:39:19.408Z,1.05
2024-02-24T15:41:46.399Z,1.23
2024-02-24T15:44:12.734Z,1.85
2024-02-24T15:46:40.316Z,1.15
2024-02-24T15:49:06.718Z,0.93
2024-02-24T15:51:32.982Z,0.98
2024-02-24T15:53:59.363Z,1.05
2024-02-24T15:56:25.737Z,1.20
2024-02-24T15:58:52.066Z,1.00
2024-02-24T16:01:19.414Z,0.68
2024-02-24T16:03:45.670Z,1.10
2024-02-24T16:06:12.152Z,0.90
2024-02-24T16:08:38.746Z,1.10
2024-02-24T16:11:05.090Z,1.35
2024-02-24T16:13:31.408Z,0.32
2024-02-24T16:15:57.740Z,1.00
2024-02-24T16:18:24.454Z,0.80
2024-02-24T16:20:51.114Z,0.82
2024-02-24T16:23:17.577Z,0.90
2024-02-24T16:25:44.016Z,1.38
2024-02-24T16:28:10.339Z,1.95
2024-02-24T16:30:36.723Z,1.00
2024-02-24T16:33:03.219Z,1.10
2024-02-24T16:35:29.570Z,1.13
2024-02-24T16:37:56.765Z,0.80
2024-02-24T16:40:24.160Z,0.98
2024-02-24T16:42:50.481Z,0.88
2024-02-24T16:45:16.853Z,1.30
2024-02-24T16:47:45.583Z,1.15
2024-02-24T16:50:11.885Z,0.75
2024-02-24T16:52:38.236Z,1.13
2024-02-24T16:55:05.302Z,1.55
2024-02-24T16:57:31.757Z,1.35
2024-02-24T16:59:58.139Z,1.42
2024-02-24T17:02:24.520Z,0.90
2024-02-24T17:04:50.838Z,1.50
2024-02-24T17:07:17.273Z,1.05
2024-02-24T17:09:43.573Z,1.60
2024-02-24T17:12:10.224Z,1.40
2024-02-24T17:14:36.673Z,1.77
2024-02-24T17:17:03.060Z,2.03
2024-02-24T17:19:29.507Z,1.85
2024-02-24T17:21:55.908Z,2.20
2024-02-24T17:24:22.153Z,1.38
2024-02-24T17:26:48.505Z,1.27
2024-02-24T17:29:14.847Z,1.67
2024-02-24T17:31:41.130Z,1.92
2024-02-24T17:34:09.907Z,1.95
2024-02-24T17:36:36.352Z,1.90
2024-02-24T17:39:03.032Z,2.67
2024-02-24T17:41:29.333Z,2.47
2024-02-24T17:43:55.865Z,2.28
2024-02-24T17:46:22.160Z,2.25
2024-02-24T17:48:50.039Z,2.05
2024-02-24T17:51:16.500Z,1.88
2024-02-24T17:53:42.933Z,1.88
2024-02-24T17:56:09.278Z,2.20
2024-02-24T17:58:40.997Z,1.67
2024-02-24T18:01:13.434Z,1.92
2024-02-24T18:03:39.799Z,1.83
2024-02-24T18:06:06.411Z,1.67
2024-02-24T18:08:32.879Z,2.85
2024-02-24T18:10:59.379Z,2.65
2024-02-24T18:13:25.668Z,2.40
2024-02-24T18:15:51.969Z,1.83
2024-02-24T18:18:18.333Z,2.38
2024-02-24T18:20:47.170Z,2.50
2024-02-24T18:23:13.633Z,3.38
2024-02-24T18:25:39.970Z,3.25
2024-02-24T18:28:06.398Z,3.47
2024-02-24T18:30:32.755Z,2.85
2024-02-24T18:32:59.377Z,2.90
2024-02-24T18:35:25.807Z,2.72
2024-02-24T18:37:52.109Z,3.22
2024-02-24T18:40:18.442Z,2.95
2024-02-24T18:42:44.735Z,3.67
2024-02-24T18:45:11.214Z,3.55
2024-02-24T18:47:37.867Z,4.10
2024-02-24T18:50:04.517Z,3.30
2024-02-24T18:52:30.847Z,4.47
2024-02-24T18:54:57.163Z,5.70
2024-02-24T18:57:23.641Z,6.53
2024-02-24T18:59:50.107Z,3.72
2024-02-24T19:02:16.488Z,4.90
2024-02-24T19:04:43.965Z,4.85
2024-02-24T19:07:10.764Z,5.50
2024-02-24T19:09:39.724Z,4.80
2024-02-24T19:12:07.925Z,5.95
2024-02-24T19:14:39.660Z,5.53
2024-02-24T19:17:11.356Z,5.47
2024-02-24T19:19:37.675Z,5.55
2024-02-24T19:22:04.371Z,4.85
2024-02-24T19:24:30.644Z,6.53
2024-02-24T19:26:57.024Z,6.90
2024-02-24T19:29:23.432Z,4.13
2024-02-24T19:31:49.727Z,5.05
2024-02-24T19:34:16.511Z,3.28
2024-02-24T19:36:43.221Z,3.15
2024-02-24T19:39:16.043Z,3.05
2024-02-24T19:41:45.629Z,2.63
2024-02-24T19:44:12.054Z,2.83
2024-02-24T19:46:38.366Z,3.17
2024-02-24T19:49:06.622Z,2.60
2024-02-24T19:51:34.515Z,4.65
2024-02-24T19:54:00.862Z,4.30
2024-02-24T19:56:27.283Z,2.97
2024-02-24T19:58:56.395Z,1.70
2024-02-24T20:01:22.981Z,2.25
2024-02-24T20:03:49.659Z,2.10
2024-02-24T20:06:16.403Z,2.47
2024-02-24T20:08:42.947Z,1.48
2024-02-24T20:11:09.503Z,2.33
2024-02-24T20:13:36.054Z,2.88
2024-02-24T20:16:05.810Z,1.88
2024-02-24T20:18:32.388Z,2.97
2024-02-24T20:20:59.138Z,1.88
2024-02-24T20:23:25.499Z,1.33
2024-02-24T20:25:52.371Z,2.10
2024-02-24T20:28:19.127Z,1.38
2024-02-24T20:30:45.840Z,1.88
2024-02-24T20:33:12.660Z,3.10
2024-02-24T20:35:39.259Z,3.25
2024-02-24T20:38:05.619Z,2.15
2024-02-24T20:40:32.050Z,1.73
2024-02-24T20:42:58.679Z,3.40
2024-02-24T20:45:25.035Z,2.40
2024-02-24T20:47:51.472Z,1.92
2024-02-24T20:50:20.171Z,1.85
2024-02-24T20:52:46.574Z,2.95
2024-02-24T20:55:12.918Z,2.25
2024-02-24T20:57:39.223Z,1.77
2024-02-24T21:00:06.019Z,2.67
2024-02-24T21:02:32.361Z,2.70
2024-02-24T21:04:58.839Z,1.33
2024-02-24T21:07:25.184Z,2.70
2024-02-24T21:09:51.567Z,1.80
2024-02-24T21:12:18.070Z,2.05
2024-02-24T21:14:44.445Z,1.75
2024-02-24T21:17:10.745Z,1.60
2024-02-24T21:19:37.056Z,2.20
2024-02-24T21:22:03.488Z,1.60
2024-02-24T21:24:29.831Z,2.17
2024-02-24T21:26:56.206Z,2.10
2024-02-24T21:29:22.647Z,0.95
2024-02-24T21:31:51.736Z,1.30
2024-02-24T21:34:20.299Z,1.23
2024-02-24T21:36:46.972Z,1.92
2024-02-24T21:39:13.317Z,2.38
2024-02-24T21:41:39.658Z,1.15
2024-02-24T21:44:06.488Z,1.08
2024-02-24T21:46:33.187Z,1.67
2024-02-24T21:49:00.105Z,0.90
2024-02-24T21:51:26.563Z,1.85
2024-02-24T21:53:52.905Z,2.08
2024-02-24T21:56:19.396Z,1.08
2024-02-24T21:58:45.776Z,1.35
2024-02-24T22:01:12.244Z,0.85
2024-02-24T22:03:39.643Z,0.85
2024-02-24T22:06:06.246Z,1.27
2024-02-24T22:08:33.473Z,0.80
2024-02-24T22:11:00.661Z,1.10
2024-02-24T22:13:27.074Z,0.50
2024-02-24T22:15:53.448Z,1.15
2024-02-24T22:18:19.898Z,1.52
2024-02-24T22:20:46.648Z,0.98
2024-02-24T22:23:13.000Z,1.50
2024-02-24T22:25:41.405Z,1.45
2024-02-24T22:28:07.710Z,0.88
2024-02-24T22:30:34.252Z,1.65
2024-02-24T22:33:00.988Z,1.35
2024-02-24T22:35:27.639Z,1.30
2024-02-24T22:37:54.050Z,0.85
2024-02-24T22:40:20.577Z,0.60
2024-02-24T22:42:46.874Z,1.42
2024-02-24T22:45:13.245Z,0.55
2024-02-24T22:47:39.572Z,0.90
2024-02-24T22:50:06.324Z,0.65
2024-02-24T22:52:32.656Z,0.95
2024-02-24T22:54:59.016Z,1.48
2024-02-24T22:57:26.536Z,1.48
2024-02-24T22:59:52.909Z,1.00
2024-02-24T23:02:19.457Z,1.38
2024-02-24T23:04:48.313Z,0.80
2024-02-24T23:07:14.855Z,1.45
2024-02-24T23:09:42.228Z,1.30
2024-02-24T23:12:08.737Z,1.10
2024-02-24T23:14:37.538Z,1.65
2024-02-24T23:17:03.966Z,1.00
2024-02-24T23:19:30.279Z,1.02
2024-02-24T23:21:56.988Z,1.00
2024-02-24T23:24:23.291Z,1.10
2024-02-24T23:26:49.622Z,0.63
2024-02-24T23:29:15.939Z,2.50
2024-02-24T23:31:42.267Z,1.30
2024-02-24T23:34:08.797Z,0.95
2024-02-24T23:36:35.450Z,0.85
2024-02-24T23:39:01.841Z,1.38
2024-02-24T23:41:28.253Z,1.38
2024-02-24T23:43:54.798Z,0.98
2024-02-24T23:46:21.170Z,0.73
2024-02-24T23:48:47.660Z,1.10
2024-02-24T23:51:14.172Z,1.00
2024-02-24T23:53:40.671Z,1.20
2024-02-24T23:56:07.426Z,0.98
2024-02-24T23:58:33.861Z,1.20
